Погода Осовна неделю

Гомельская область, Белоруссия

24 - 30 июля
  • 24июля
    Сегодня
    +14°
    +26°
    Ясно и безоблачно
    ВремяПогодаТемператураВлажностьДавлениеВетер, м/сВероятность осадков
    00:00Ясно и безоблачно+19°C88 %747 мм2.2 м/с2 %
    03:00Ясно и безоблачно+17°C93 %747 мм2.3 м/с2 %
    06:00Ясно и безоблачно+17°C94 %747 мм2.0 м/с2 %
    09:00Ясно и безоблачно+19°C74 %747 мм3.5 м/с2 %
    12:00Ясно и безоблачно+24°C51 %747 мм4.3 м/с9 %
    15:00Ясно и безоблачно+26°C43 %746 мм4.4 м/с5 %
    18:00Ясно и безоблачно+25°C43 %746 мм5.2 м/с2 %
    21:00Ясно и безоблачно+21°C59 %745 мм3.0 м/с2 %
  • 25июля
    Четверг
    +16°
    +27°
    Облачно с прояснениями
    ВремяПогодаТемператураВлажностьДавлениеВетер, м/сВероятность осадков
    00:00Ясно и безоблачно+17°C69 %746 мм2.1 м/с2 %
    03:00Ясно и безоблачно+16°C74 %745 мм2.4 м/с2 %
    06:00Ясно и безоблачно+16°C78 %745 мм1.8 м/с2 %
    09:00Практически безоблачно+21°C59 %745 мм2.7 м/с2 %
    12:00Небольшая облачность+26°C39 %745 мм3.9 м/с2 %
    15:00Облачно с прояснениями+27°C38 %744 мм3.9 м/с2 %
    18:00Облачно с прояснениями+26°C39 %744 мм4.4 м/с2 %
    21:00Пасмурно, сплошная облачность+23°C60 %744 мм2.8 м/с2 %
  • 26июля
    Пятница
    +16°
    +28°
    Ясно и безоблачно
    ВремяПогодаТемператураВлажностьДавлениеВетер, м/сВероятность осадков
    00:00Небольшая облачность+19°C63 %744 мм1.9 м/с2 %
    03:00Ясно и безоблачно+17°C75 %744 мм2.3 м/с2 %
    06:00Небольшая облачность+17°C79 %745 мм1.6 м/с2 %
    09:00Ясно и безоблачно+22°C60 %746 мм2.5 м/с2 %
    12:00Небольшая облачность+27°C38 %746 мм2.7 м/с3 %
    15:00Ясно и безоблачно+28°C38 %747 мм2.6 м/с9 %
    18:00Небольшая облачность+27°C39 %747 мм4.5 м/с15 %
    21:00Облачно с прояснениями+23°C62 %748 мм2.6 м/с8 %
  • 27июля
    Суббота
    +18°
    +29°
    Ясно и безоблачно
    ВремяПогодаТемператураВлажностьДавлениеВетер, м/сВероятность осадков
    00:00Ясно и безоблачно+20°C75 %748 мм2.2 м/с2 %
    03:00Ясно и безоблачно+18°C88 %749 мм2.4 м/с2 %
    06:00Ясно и безоблачно+18°C94 %749 мм1.5 м/с2 %
    09:00Практически безоблачно+21°C68 %750 мм2.1 м/с3 %
    12:00Практически безоблачно+24°C47 %751 мм2.1 м/с4 %
    15:00Ясно и безоблачно+27°C43 %751 мм2.4 м/с10 %
    18:00Практически безоблачно+28°C39 %751 мм4.4 м/с17 %
    21:00Облачно с прояснениями+24°C59 %751 мм2.3 м/с7 %
  • 28июля
    Воскресенье
    +19°
    +31°
    Облачно с прояснениями
    ВремяПогодаТемператураВлажностьДавлениеВетер, м/сВероятность осадков
    00:00Практически безоблачно+21°C62 %751 мм2.0 м/с2 %
    03:00Ясно и безоблачно+19°C65 %751 мм2.2 м/с2 %
    06:00Ясно и безоблачно+19°C69 %752 мм1.7 м/с2 %
    09:00Облачно с прояснениями+23°C59 %752 мм2.6 м/с2 %
    12:00Облачно с прояснениями+28°C48 %752 мм3.8 м/с3 %
    15:00Облачно с прояснениями+29°C42 %751 мм4.5 м/с7 %
    18:00Практически безоблачно+29°C42 %750 мм5.3 м/с10 %
    21:00Ясно и безоблачно+26°C55 %749 мм2.7 м/с9 %
Мы используем cookies
Соглашаюсь